Time;durP1;ratioP1;P1;durP2;ratioP2;P2;SDS_P1;SDS_P2;PMS_P1;PMS_P2;Temp;Humidity;BMP_temperature;BMP_pressure;BME280_temperature;BME280_humidity;BME280_pressure;Samples;Min_cycle;Max_cycle;Signal;HPM_P1;HPM_P2
2023/05/20 00:00:15;;;;;;;10.40;7.80;;;;;;;13.50;84.79;101631.80;103989;277;39782;-74
2023/05/20 00:03:12;;;;;;;13.60;7.70;;;;;;;13.50;84.91;101627.62;104064;277;38556;-73
2023/05/20 00:05:46;;;;;;;10.30;7.50;;;;;;;13.50;84.89;101626.70;104011;277;38525;-73
2023/05/20 00:08:24;;;;;;;10.60;8.00;;;;;;;13.50;85.04;101626.89;104066;276;38614;-73
2023/05/20 00:10:59;;;;;;;11.50;8.50;;;;;;;13.51;84.99;101624.96;103819;278;39303;-73
2023/05/20 00:13:36;;;;;;;9.00;7.20;;;;;;;13.50;85.03;101620.94;103921;277;175153;-74
2023/05/20 00:16:14;;;;;;;12.40;7.30;;;;;;;13.48;85.11;101615.92;104041;277;39645;-73
2023/05/20 00:18:53;;;;;;;10.10;7.20;;;;;;;13.47;85.07;101615.57;104067;277;38265;-73
2023/05/20 00:21:32;;;;;;;10.90;7.80;;;;;;;13.48;85.12;101612.76;104036;277;38438;-73
2023/05/20 00:24:09;;;;;;;13.60;8.00;;;;;;;13.49;85.01;101613.79;104031;277;39435;-74
2023/05/20 00:26:43;;;;;;;8.80;7.20;;;;;;;13.48;84.95;101611.70;104070;277;39450;-73
2023/05/20 00:29:17;;;;;;;10.40;7.40;;;;;;;13.45;84.92;101614.77;104047;277;38938;-74
2023/05/20 00:31:53;;;;;;;9.00;6.70;;;;;;;13.45;84.88;101614.60;104085;277;38247;-75
2023/05/20 00:34:27;;;;;;;11.00;6.60;;;;;;;13.44;84.81;101615.84;103832;278;38442;-76
2023/05/20 00:37:01;;;;;;;9.80;6.80;;;;;;;13.42;84.50;101615.20;104050;277;39466;-75
2023/05/20 00:39:35;;;;;;;7.30;6.00;;;;;;;13.41;84.61;101611.38;104041;276;39593;-75
2023/05/20 00:42:11;;;;;;;9.70;6.30;;;;;;;13.41;84.58;101607.53;103348;276;903776;-74
2023/05/20 00:44:45;;;;;;;6.90;5.80;;;;;;;13.39;84.41;101606.52;104021;276;38465;-75
2023/05/20 00:47:26;;;;;;;7.50;5.90;;;;;;;13.35;84.15;101604.35;103984;276;39296;-74
2023/05/20 00:50:00;;;;;;;6.70;5.60;;;;;;;13.34;84.25;101603.88;104041;276;39422;-74
2023/05/20 00:52:35;;;;;;;7.70;5.70;;;;;;;13.34;84.22;101607.02;104042;277;38235;-74
2023/05/20 00:55:13;;;;;;;10.20;5.20;;;;;;;13.33;84.17;101608.64;103987;277;38700;-74
2023/05/20 00:57:50;;;;;;;7.70;5.50;;;;;;;13.32;84.25;101610.43;104070;277;38414;-74
2023/05/20 01:00:24;;;;;;;8.40;5.10;;;;;;;13.30;83.68;101610.84;104032;277;38405;-74
2023/05/20 01:03:01;;;;;;;8.90;5.20;;;;;;;13.28;83.77;101612.28;104067;277;39454;-74
2023/05/20 01:05:36;;;;;;;6.30;5.10;;;;;;;13.28;83.69;101612.45;104079;277;39410;-75
2023/05/20 01:08:15;;;;;;;6.90;5.30;;;;;;;13.29;83.60;101610.69;104097;277;39305;-74
2023/05/20 01:10:59;;;;;;;6.70;5.20;;;;;;;13.31;83.56;101611.88;104096;277;38584;-74
2023/05/20 01:13:39;;;;;;;7.60;4.60;;;;;;;13.31;83.53;101608.70;104116;277;39647;-74
2023/05/20 01:16:17;;;;;;;6.30;5.00;;;;;;;13.29;83.33;101611.73;104090;277;38415;-73
2023/05/20 01:18:53;;;;;;;8.00;5.00;;;;;;;13.28;83.13;101611.06;104040;277;38233;-74
2023/05/20 01:21:27;;;;;;;9.60;4.60;;;;;;;13.29;83.07;101610.35;104026;277;40267;-74
2023/05/20 01:24:07;;;;;;;5.90;4.80;;;;;;;13.29;82.65;101612.09;104015;277;39555;-73
2023/05/20 01:26:47;;;;;;;8.30;5.00;;;;;;;13.29;82.67;101610.86;104009;276;38241;-73
2023/05/20 01:29:21;;;;;;;7.80;5.10;;;;;;;13.29;82.45;101612.98;103906;277;174643;-73
2023/05/20 01:31:55;;;;;;;6.90;4.60;;;;;;;13.26;82.43;101611.29;104042;277;38301;-74
2023/05/20 01:34:29;;;;;;;7.10;4.30;;;;;;;13.24;82.06;101614.52;104023;277;38468;-73
2023/05/20 01:37:06;;;;;;;6.20;4.30;;;;;;;13.21;81.94;101607.92;104040;277;38384;-74
2023/05/20 01:39:44;;;;;;;7.90;4.60;;;;;;;13.18;81.85;101605.18;103823;279;39673;-73
2023/05/20 01:42:18;;;;;;;6.60;4.10;;;;;;;13.15;81.87;101602.47;103997;277;39030;-75
2023/05/20 01:44:54;;;;;;;6.80;4.30;;;;;;;13.13;81.93;101601.65;103788;277;38262;-75
2023/05/20 01:47:32;;;;;;;8.40;3.90;;;;;;;13.11;81.84;101602.92;103806;276;38742;-73
2023/05/20 01:50:11;;;;;;;4.90;3.90;;;;;;;13.08;81.56;101603.90;103962;277;40623;-73
2023/05/20 01:52:45;;;;;;;5.40;3.60;;;;;;;13.04;81.30;101601.04;104147;277;38817;-74
2023/05/20 01:55:20;;;;;;;5.80;3.80;;;;;;;13.00;81.22;101598.52;104174;277;38608;-73
2023/05/20 01:57:55;;;;;;;8.30;3.70;;;;;;;13.02;81.30;101594.82;104059;277;38470;-73
2023/05/20 02:00:30;;;;;;;4.70;3.60;;;;;;;13.03;80.92;101593.20;103934;277;175105;-74
2023/05/20 02:03:09;;;;;;;6.00;3.50;;;;;;;13.00;80.65;101594.16;104004;277;38362;-71
2023/05/20 02:05:43;;;;;;;7.90;3.50;;;;;;;12.98;80.43;101592.44;103943;277;39632;-74
2023/05/20 02:08:21;;;;;;;8.10;3.50;;;;;;;12.95;80.17;101592.73;103951;277;38264;-75
2023/05/20 02:10:55;;;;;;;5.90;3.60;;;;;;;12.91;80.30;101590.73;103765;279;39375;-73
2023/05/20 02:13:37;;;;;;;7.00;4.20;;;;;;;12.87;80.32;101591.38;103925;265;39412;-74
2023/05/20 02:16:13;;;;;;;4.70;3.60;;;;;;;12.85;80.35;101591.24;103964;277;39416;-73
2023/05/20 02:18:50;;;;;;;5.90;3.50;;;;;;;12.84;80.39;101590.57;103939;277;38301;-73
2023/05/20 02:21:27;;;;;;;6.50;3.30;;;;;;;12.84;80.22;101593.90;103808;277;38359;-74
2023/05/20 02:24:04;;;;;;;5.30;3.30;;;;;;;12.83;80.12;101595.49;103926;266;39702;-75
2023/05/20 02:26:39;;;;;;;4.90;3.00;;;;;;;12.81;80.16;101596.61;103841;277;38284;-74
2023/05/20 02:29:20;;;;;;;5.10;3.20;;;;;;;12.81;80.10;101596.09;104013;277;40044;-75
2023/05/20 02:31:56;;;;;;;6.70;3.70;;;;;;;12.79;80.12;101594.73;103949;277;39390;-74
2023/05/20 02:34:31;;;;;;;5.40;3.40;;;;;;;12.77;79.85;101594.09;103970;277;38246;-74
2023/05/20 02:37:09;;;;;;;5.00;3.10;;;;;;;12.75;79.89;101596.42;104021;277;38740;-73
2023/05/20 02:39:43;;;;;;;7.40;3.20;;;;;;;12.75;79.96;101601.67;103984;277;38491;-74
2023/05/20 02:42:17;;;;;;;5.90;3.30;;;;;;;12.78;80.01;101603.33;104060;277;38460;-75
2023/05/20 02:44:52;;;;;;;4.30;3.60;;;;;;;12.80;79.82;101606.27;103922;277;175166;-75
2023/05/20 02:47:31;;;;;;;6.20;3.80;;;;;;;12.77;79.58;101606.36;104010;277;38396;-75
2023/05/20 02:50:06;;;;;;;7.40;3.80;;;;;;;12.74;79.80;101604.16;103955;277;38238;-75
2023/05/20 02:52:41;;;;;;;6.50;3.40;;;;;;;12.73;79.99;101611.55;104009;277;38497;-73
2023/05/20 02:55:16;;;;;;;7.10;3.80;;;;;;;12.73;79.94;101615.55;103941;277;38276;-74
2023/05/20 02:57:51;;;;;;;4.90;4.10;;;;;;;12.73;80.06;101609.77;103987;277;39455;-74
2023/05/20 03:00:27;;;;;;;5.30;3.70;;;;;;;12.75;80.04;101606.40;103974;277;38211;-74
2023/05/20 03:03:03;;;;;;;4.80;3.60;;;;;;;12.74;79.80;101609.59;103925;277;38269;-74
2023/05/20 03:05:41;;;;;;;5.90;3.60;;;;;;;12.71;80.12;101610.01;103908;277;38462;-72
2023/05/20 03:08:15;;;;;;;5.80;3.70;;;;;;;12.70;80.01;101604.44;103962;277;38814;-74
2023/05/20 03:10:49;;;;;;;5.10;3.40;;;;;;;12.70;80.05;101604.98;103929;277;38979;-73
2023/05/20 03:13:23;;;;;;;5.60;3.50;;;;;;;12.72;80.35;101599.14;103734;277;38883;-72
2023/05/20 03:16:01;;;;;;;7.60;4.00;;;;;;;12.74;80.29;101597.85;103744;278;39827;-73
2023/05/20 03:18:36;;;;;;;6.90;3.50;;;;;;;12.73;79.92;101600.32;103931;277;39138;-73
2023/05/20 03:21:17;;;;;;;3.90;3.10;;;;;;;12.73;79.99;101602.10;103925;277;38790;-73
2023/05/20 03:23:57;;;;;;;6.30;3.10;;;;;;;12.73;79.82;101606.46;103991;277;38703;-73
2023/05/20 03:26:32;;;;;;;6.80;3.30;;;;;;;12.72;79.52;101609.64;103962;277;39424;-74
2023/05/20 03:29:07;;;;;;;4.50;3.10;;;;;;;12.76;79.99;101608.48;103995;277;39155;-74
2023/05/20 03:31:41;;;;;;;7.60;4.00;;;;;;;12.79;80.06;101603.66;104001;277;39667;-74
2023/05/20 03:34:15;;;;;;;4.70;3.50;;;;;;;12.81;79.84;101607.65;103810;279;38276;-73
2023/05/20 03:36:52;;;;;;;5.50;3.20;;;;;;;12.81;79.81;101608.52;103894;277;38806;-73
2023/05/20 03:39:31;;;;;;;6.20;3.10;;;;;;;12.83;79.83;101606.53;103855;277;39328;-73
2023/05/20 03:42:10;;;;;;;6.70;3.60;;;;;;;12.86;79.88;101610.33;103953;277;38240;-74
2023/05/20 03:44:45;;;;;;;7.80;3.30;;;;;;;12.89;79.64;101609.85;103922;266;38447;-74
2023/05/20 03:47:22;;;;;;;7.30;3.80;;;;;;;12.96;79.71;101612.31;103910;277;39690;-74
2023/05/20 03:50:00;;;;;;;5.00;3.60;;;;;;;13.01;79.69;101613.21;103923;277;38243;-74
2023/05/20 03:52:34;;;;;;;5.80;3.40;;;;;;;13.04;79.64;101605.58;103234;278;645808;-74
2023/05/20 03:55:11;;;;;;;6.30;3.80;;;;;;;13.06;79.55;101602.39;103860;277;38741;-73
2023/05/20 03:57:45;;;;;;;9.00;3.80;;;;;;;13.08;79.45;101600.59;103886;277;39599;-75
2023/05/20 04:00:23;;;;;;;6.20;3.80;;;;;;;13.09;79.26;101606.84;103908;277;38237;-75
2023/05/20 04:02:59;;;;;;;7.20;3.70;;;;;;;13.14;79.45;101608.27;103898;277;39456;-74
2023/05/20 04:05:33;;;;;;;6.50;3.50;;;;;;;13.22;79.60;101602.83;103871;277;38496;-72
2023/05/20 04:08:12;;;;;;;6.50;3.70;;;;;;;13.27;79.37;101607.27;103832;277;172390;-73
2023/05/20 04:10:49;;;;;;;5.70;3.70;;;;;;;13.30;79.30;101607.52;103790;266;172132;-74
2023/05/20 04:13:25;;;;;;;5.50;3.50;;;;;;;13.34;79.07;101605.80;103745;281;38322;-75
2023/05/20 04:16:01;;;;;;;6.20;3.50;;;;;;;13.38;79.15;101610.42;103925;277;39376;-74
2023/05/20 04:18:37;;;;;;;5.70;3.60;;;;;;;13.43;79.30;101608.16;103946;277;38673;-75
2023/05/20 04:21:17;;;;;;;7.10;3.20;;;;;;;13.51;79.00;101616.52;103827;278;38388;-74
2023/05/20 04:23:54;;;;;;;6.80;3.20;;;;;;;13.56;78.73;101614.43;103891;278;38363;-74
2023/05/20 04:26:30;;;;;;;5.20;3.40;;;;;;;13.61;78.62;101615.31;103972;277;38268;-73
2023/05/20 04:29:05;;;;;;;6.10;3.60;;;;;;;13.64;78.08;101621.04;103910;277;38979;-75
2023/05/20 04:31:45;;;;;;;6.70;3.50;;;;;;;13.61;77.77;101622.51;103916;277;38861;-74
2023/05/20 04:34:25;;;;;;;6.90;3.50;;;;;;;13.66;78.03;101621.15;103887;274;38375;-75
2023/05/20 04:36:59;;;;;;;5.30;3.60;;;;;;;13.74;77.95;101620.90;103904;277;38664;-74
2023/05/20 04:39:33;;;;;;;6.10;3.90;;;;;;;13.82;77.82;101623.27;103904;277;38270;-73
2023/05/20 04:42:08;;;;;;;7.20;3.40;;;;;;;13.88;77.69;101619.74;103901;277;38598;-73
2023/05/20 04:44:45;;;;;;;5.00;3.30;;;;;;;13.93;77.21;101614.67;103867;277;38267;-73
2023/05/20 04:47:19;;;;;;;8.50;5.20;;;;;;;13.95;77.10;101615.31;103904;277;38822;-75
2023/05/20 04:49:56;;;;;;;6.70;4.10;;;;;;;14.02;77.21;101614.02;103907;277;39454;-74
2023/05/20 04:52:35;;;;;;;5.90;4.80;;;;;;;14.11;77.22;101614.27;103713;279;39272;-74
2023/05/20 04:55:12;;;;;;;8.30;5.60;;;;;;;14.18;76.89;101611.06;103900;277;38279;-75
2023/05/20 04:57:47;;;;;;;9.40;5.40;;;;;;;14.29;77.18;101608.23;103979;274;39198;-74
2023/05/20 05:00:24;;;;;;;11.60;6.30;;;;;;;14.39;77.23;101611.57;103895;277;38483;-73
2023/05/20 05:02:59;;;;;;;9.50;5.60;;;;;;;14.47;77.31;101608.16;103963;277;39941;-73
2023/05/20 05:05:37;;;;;;;12.10;5.60;;;;;;;14.56;77.02;101613.31;103860;277;38258;-75
2023/05/20 05:08:16;;;;;;;13.10;4.70;;;;;;;14.64;76.65;101616.53;103959;277;39793;-73
2023/05/20 05:10:51;;;;;;;12.40;5.10;;;;;;;14.76;76.79;101618.59;103976;277;38285;-73
2023/05/20 05:13:33;;;;;;;11.30;5.40;;;;;;;14.89;76.72;101615.11;103884;277;39052;-72
2023/05/20 05:16:10;;;;;;;12.00;5.00;;;;;;;15.06;76.40;101615.02;103973;277;38284;-75
2023/05/20 05:18:47;;;;;;;8.60;4.40;;;;;;;15.30;76.22;101615.55;103917;277;38294;-72
2023/05/20 05:21:30;;;;;;;9.20;4.50;;;;;;;15.54;76.04;101613.73;103910;277;39664;-74
2023/05/20 05:24:08;;;;;;;6.90;4.80;;;;;;;15.75;75.24;101613.48;103885;277;38472;-73
2023/05/20 05:26:47;;;;;;;7.30;4.90;;;;;;;15.89;73.88;101615.41;103929;277;39393;-72
2023/05/20 05:29:26;;;;;;;7.30;4.70;;;;;;;15.98;73.44;101613.59;103935;277;38291;-73
2023/05/20 05:32:07;;;;;;;9.20;4.60;;;;;;;16.09;72.84;101609.46;103931;277;38284;-74
2023/05/20 05:34:44;;;;;;;5.80;4.50;;;;;;;16.26;73.09;101609.79;103924;277;38469;-73
2023/05/20 05:37:25;;;;;;;5.90;3.90;;;;;;;16.43;72.45;101610.29;103751;279;38538;-74
2023/05/20 05:39:59;;;;;;;9.10;4.30;;;;;;;16.59;71.76;101613.48;104018;277;38239;-73
2023/05/20 05:42:36;;;;;;;10.60;4.30;;;;;;;16.83;71.74;101610.02;103979;277;39682;-72
2023/05/20 05:45:13;;;;;;;6.10;4.00;;;;;;;17.06;71.87;101608.08;103820;277;39922;-73
2023/05/20 05:47:48;;;;;;;5.10;4.20;;;;;;;17.30;71.06;101617.58;103821;277;39884;-73
2023/05/20 05:50:26;;;;;;;6.10;4.30;;;;;;;17.47;70.15;101613.27;103850;275;174916;-74
2023/05/20 05:53:00;;;;;;;5.60;3.90;;;;;;;17.63;69.33;101615.85;103927;277;38235;-74
2023/05/20 05:55:37;;;;;;;8.60;5.00;;;;;;;18.06;71.08;101612.74;103927;277;38253;-73
2023/05/20 05:58:16;;;;;;;5.80;4.10;;;;;;;18.89;69.32;101610.80;103990;277;38371;-73
2023/05/20 06:00:55;;;;;;;7.30;4.20;;;;;;;19.28;67.33;101614.38;103994;277;40143;-74
2023/05/20 06:03:28;;;;;;;;;;;;;;;19.43;65.49;101614.94;104031;277;38438;-76
2023/05/20 06:06:05;;;;;;;10.90;4.10;;;;;;;19.48;63.98;101618.75;104026;277;38220;-76
2023/05/20 06:08:44;;;;;;;7.80;4.10;;;;;;;19.52;63.23;101618.55;103984;265;38235;-74
2023/05/20 06:11:25;;;;;;;5.40;4.50;;;;;;;19.48;62.12;101618.95;103999;277;39645;-75
2023/05/20 06:14:03;;;;;;;7.00;3.70;;;;;;;19.35;62.01;101611.86;103835;277;38361;-73
2023/05/20 06:16:40;;;;;;;4.50;4.00;;;;;;;19.42;62.76;101609.18;103933;277;40006;-75
2023/05/20 06:19:15;;;;;;;5.50;4.00;;;;;;;19.55;62.82;101603.15;103984;277;38590;-74
2023/05/20 06:21:53;;;;;;;4.70;3.70;;;;;;;19.70;62.40;101607.48;103962;277;38234;-74
2023/05/20 06:24:31;;;;;;;5.60;4.00;;;;;;;19.79;62.25;101601.81;103922;277;38391;-74
2023/05/20 06:27:07;;;;;;;7.20;4.10;;;;;;;19.97;61.39;101599.90;103705;277;38227;-74
2023/05/20 06:29:45;;;;;;;4.60;3.50;;;;;;;20.15;61.47;101592.47;103928;277;38719;-74
2023/05/20 06:32:19;;;;;;;5.50;3.70;;;;;;;20.40;61.04;101593.66;103956;277;38433;-73
2023/05/20 06:34:53;;;;;;;6.60;3.60;;;;;;;20.60;60.01;101597.61;103955;277;38707;-75
2023/05/20 06:37:27;;;;;;;4.90;3.70;;;;;;;20.74;58.89;101595.91;104005;277;38481;-73
2023/05/20 06:40:03;;;;;;;5.20;3.70;;;;;;;20.82;58.91;101592.55;103997;277;38358;-73
2023/05/20 06:42:37;;;;;;;5.00;3.40;;;;;;;20.93;58.36;101593.48;104011;277;39792;-72
2023/05/20 06:45:21;;;;;;;7.10;3.80;;;;;;;20.99;57.67;101589.02;104027;277;41186;-75
2023/05/20 06:47:56;;;;;;;9.90;4.00;;;;;;;21.16;58.24;101586.70;103761;279;38303;-75
2023/05/20 06:50:31;;;;;;;5.90;3.10;;;;;;;21.51;56.86;101584.86;104020;277;39736;-73
2023/05/20 06:53:09;;;;;;;5.10;3.50;;;;;;;21.71;56.69;101583.94;104015;277;38211;-75
2023/05/20 06:55:44;;;;;;;5.00;3.20;;;;;;;21.93;56.46;101588.86;104032;277;38262;-74
2023/05/20 06:58:18;;;;;;;5.50;3.30;;;;;;;22.15;55.66;101582.79;103961;277;38282;-73
2023/05/20 07:00:53;;;;;;;3.90;3.00;;;;;;;22.39;54.65;101585.27;103865;278;38378;-74
2023/05/20 07:03:29;;;;;;;5.50;3.60;;;;;;;22.64;55.12;101584.55;103960;277;38229;-76
2023/05/20 07:06:03;;;;;;;8.20;3.60;;;;;;;23.05;53.41;101578.65;103931;277;38446;-75
2023/05/20 07:08:39;;;;;;;6.30;3.60;;;;;;;23.53;51.99;101578.25;103926;277;38462;-74
2023/05/20 07:11:14;;;;;;;7.90;3.60;;;;;;;23.85;51.17;101575.91;103741;279;39383;-74
2023/05/20 07:13:48;;;;;;;7.00;3.40;;;;;;;24.40;50.47;101575.13;103915;275;38327;-73
2023/05/20 07:16:28;;;;;;;6.20;3.30;;;;;;;25.00;49.19;101570.42;103952;277;38489;-73
2023/05/20 07:19:06;;;;;;;5.60;3.20;;;;;;;25.70;48.55;101569.02;103989;277;39421;-73
2023/05/20 07:21:43;;;;;;;5.90;3.50;;;;;;;26.53;47.55;101568.79;103929;277;38782;-73
2023/05/20 07:24:18;;;;;;;8.70;3.60;;;;;;;27.06;44.99;101566.91;103807;277;174350;-75
2023/05/20 07:26:56;;;;;;;5.20;3.30;;;;;;;27.66;44.02;101571.37;103942;277;38286;-76
2023/05/20 07:29:31;;;;;;;5.40;3.50;;;;;;;27.95;41.64;101565.33;103721;277;39377;-75
2023/05/20 07:32:08;;;;;;;5.80;3.50;;;;;;;28.08;41.17;101564.42;103942;277;38358;-74
2023/05/20 07:34:44;;;;;;;5.10;3.30;;;;;;;28.51;40.72;101557.73;103975;277;38252;-76
2023/05/20 07:37:26;;;;;;;8.20;3.40;;;;;;;29.02;40.49;101558.37;103952;277;38450;-77
2023/05/20 07:40:06;;;;;;;8.70;3.30;;;;;;;29.15;38.26;101555.70;103935;277;38491;-75
2023/05/20 07:42:40;;;;;;;5.00;3.20;;;;;;;29.29;38.10;101553.57;103839;279;38278;-75
2023/05/20 07:45:21;;;;;;;8.30;3.50;;;;;;;29.72;38.36;101554.86;103786;278;39554;-75
2023/05/20 07:47:59;;;;;;;5.50;3.40;;;;;;;30.21;37.27;101550.50;103884;277;38507;-77
2023/05/20 07:50:33;;;;;;;7.30;3.70;;;;;;;30.63;36.52;101548.74;103948;277;39409;-75
2023/05/20 07:53:07;;;;;;;5.30;3.20;;;;;;;30.92;35.32;101547.06;103925;277;38235;-76
2023/05/20 07:55:41;;;;;;;6.00;3.10;;;;;;;31.07;34.93;101541.66;103901;277;38347;-75
2023/05/20 07:58:17;;;;;;;5.50;3.40;;;;;;;31.17;34.58;101541.94;103789;277;38393;-75
2023/05/20 08:00:55;;;;;;;3.90;3.00;;;;;;;31.28;34.13;101537.73;103919;277;38810;-76
2023/05/20 08:03:30;;;;;;;3.70;3.40;;;;;;;31.44;34.32;101536.46;103894;277;38250;-75
2023/05/20 08:06:06;;;;;;;5.80;3.40;;;;;;;31.52;34.14;101537.52;103745;277;174080;-75
2023/05/20 08:08:42;;;;;;;5.20;3.40;;;;;;;31.74;33.51;101540.21;103879;277;39412;-76
2023/05/20 08:11:20;;;;;;;4.40;3.40;;;;;;;31.73;33.15;101538.45;103782;277;38441;-74
2023/05/20 08:13:54;;;;;;;4.60;3.30;;;;;;;31.47;32.57;101540.00;103882;277;38364;-74
2023/05/20 08:16:33;;;;;;;5.20;3.00;;;;;;;31.22;33.44;101541.86;103896;277;39815;-75
2023/05/20 08:19:08;;;;;;;8.60;3.40;;;;;;;31.31;33.33;101535.82;103939;277;38545;-76
2023/05/20 08:21:42;;;;;;;3.20;2.90;;;;;;;31.22;33.08;101535.34;103914;277;38840;-76
2023/05/20 08:24:19;;;;;;;5.70;3.30;;;;;;;31.00;33.52;101538.06;103897;277;38537;-74
2023/05/20 08:26:58;;;;;;;4.40;2.90;;;;;;;31.00;33.11;101539.52;103905;277;38460;-77
2023/05/20 08:29:39;;;;;;;5.10;3.20;;;;;;;31.37;34.14;101535.16;103911;277;40113;-77
2023/05/20 08:32:16;;;;;;;3.90;3.00;;;;;;;31.74;33.20;101536.36;103949;277;39699;-74
2023/05/20 08:34:51;;;;;;;6.00;3.10;;;;;;;32.18;33.52;101534.71;103926;277;39413;-75
2023/05/20 08:37:25;;;;;;;5.30;2.80;;;;;;;32.74;32.31;101533.01;103756;281;39255;-74
2023/05/20 08:40:04;;;;;;;3.10;2.80;;;;;;;33.06;31.42;101534.15;103820;277;39780;-75
2023/05/20 08:42:45;;;;;;;6.00;3.40;;;;;;;32.85;30.64;101531.54;103935;277;38269;-73
2023/05/20 08:45:28;;;;;;;6.70;3.60;;;;;;;32.93;30.39;101534.61;103949;277;38283;-76
2023/05/20 08:48:04;;;;;;;6.20;3.30;;;;;;;32.95;29.68;101531.83;104010;277;39721;-76
2023/05/20 08:50:40;;;;;;;3.10;2.80;;;;;;;32.91;29.88;101524.14;104041;277;39821;-74
2023/05/20 08:53:15;;;;;;;7.00;3.00;;;;;;;33.03;30.67;101524.06;104024;277;39691;-76
2023/05/20 08:55:56;;;;;;;4.40;2.60;;;;;;;33.36;30.47;101514.39;104006;277;39419;-75
2023/05/20 08:58:36;;;;;;;4.60;3.10;;;;;;;33.49;29.91;101513.46;103817;277;39643;-75
2023/05/20 09:01:14;;;;;;;8.40;3.10;;;;;;;33.44;29.40;101514.58;104021;277;38502;-77
2023/05/20 09:03:49;;;;;;;6.80;3.10;;;;;;;33.47;29.09;101513.17;104061;277;38290;-76
2023/05/20 09:06:30;;;;;;;6.30;3.10;;;;;;;33.43;30.04;101512.15;104067;277;38862;-76
2023/05/20 09:09:10;;;;;;;6.40;3.50;;;;;;;33.58;29.13;101516.52;104098;277;38332;-81
2023/05/20 09:11:46;;;;;;;5.60;3.30;;;;;;;33.34;29.15;101510.66;104089;277;39856;-76
2023/05/20 09:14:28;;;;;;;4.40;2.80;;;;;;;33.15;29.61;101510.57;104037;277;38716;-78
2023/05/20 09:17:16;;;;;;;4.60;2.90;;;;;;;33.02;30.00;101510.80;104081;277;38542;-76
2023/05/20 09:20:08;;;;;;;7.10;3.20;;;;;;;32.97;30.47;101508.33;104062;277;38223;-77
2023/05/20 09:22:56;;;;;;;3.70;3.20;;;;;;;32.88;31.16;101507.75;104114;277;38373;-79
2023/05/20 09:25:37;;;;;;;;;;;;;;;32.77;31.47;101504.80;104061;277;173863;-79
2023/05/20 09:28:26;;;;;;;5.40;3.30;;;;;;;32.29;30.30;101500.19;104059;277;38246;-77
2023/05/20 09:31:10;;;;;;;4.80;3.10;;;;;;;31.58;32.02;101504.23;104102;276;38373;-77
2023/05/20 09:33:55;;;;;;;6.10;3.50;;;;;;;31.11;32.07;101507.82;104027;277;38322;-76
2023/05/20 09:36:38;;;;;;;6.20;3.40;;;;;;;30.37;33.10;101512.63;103745;279;38540;-75
2023/05/20 09:39:21;;;;;;;6.00;3.80;;;;;;;29.75;34.04;101511.95;103920;277;38297;-76
2023/05/20 09:42:10;;;;;;;5.30;3.30;;;;;;;29.30;34.18;101506.75;103757;277;38600;-77
2023/05/20 09:44:59;;;;;;;6.10;3.50;;;;;;;28.86;35.74;101503.52;103704;277;38411;-75
2023/05/20 09:47:38;;;;;;;5.70;3.80;;;;;;;28.52;36.43;101504.48;103965;277;38227;-75
2023/05/20 09:50:16;;;;;;;4.50;3.60;;;;;;;28.24;36.56;101501.23;103949;277;38260;-76
2023/05/20 09:52:54;;;;;;;7.80;3.40;;;;;;;28.18;36.88;101502.88;103880;277;39546;-73
2023/05/20 09:55:33;;;;;;;5.20;3.70;;;;;;;28.12;36.51;101497.49;103906;278;38796;-79
2023/05/20 09:58:10;;;;;;;5.40;3.80;;;;;;;28.04;36.78;101492.14;104040;277;38563;-78
2023/05/20 10:00:46;;;;;;;4.90;3.70;;;;;;;28.05;36.55;101492.77;104010;277;38264;-76
2023/05/20 10:03:21;;;;;;;5.50;3.90;;;;;;;27.96;37.21;101491.46;104021;276;38202;-76
2023/05/20 10:06:19;;;;;;;5.70;4.00;;;;;;;28.00;37.53;101487.45;104059;265;38461;-73
2023/05/20 10:09:24;;;;;;;4.80;3.70;;;;;;;28.03;37.37;101488.61;104062;277;38238;-75
2023/05/20 10:12:25;;;;;;;6.30;4.00;;;;;;;28.05;37.33;101487.77;104094;277;38409;-75
2023/05/20 10:15:07;;;;;;;5.70;3.60;;;;;;;27.74;36.71;101490.28;104146;277;38557;-78
2023/05/20 10:17:48;;;;;;;5.30;3.90;;;;;;;27.37;37.29;101487.21;103961;279;38487;-83
2023/05/20 10:20:30;;;;;;;4.60;3.90;;;;;;;27.08;37.86;101490.05;104120;277;38523;-79
2023/05/20 10:23:07;;;;;;;6.60;3.90;;;;;;;26.95;38.14;101492.81;104093;277;39578;-77
2023/05/20 10:26:05;;;;;;;6.30;3.90;;;;;;;26.72;38.08;101488.55;104084;277;38330;-76
2023/05/20 10:28:45;;;;;;;6.40;3.90;;;;;;;26.63;38.78;101484.95;103655;277;174471;-78
2023/05/20 10:31:33;;;;;;;4.30;3.60;;;;;;;26.59;38.93;101479.95;103869;277;39423;-77
2023/05/20 10:34:23;;;;;;;6.80;4.10;;;;;;;26.49;39.16;101484.69;103937;277;38399;-75
2023/05/20 10:37:03;;;;;;;;;;;;;;;26.42;39.64;101474.03;104131;276;38453;-78
2023/05/20 10:39:41;;;;;;;5.00;3.90;;;;;;;26.36;39.91;101473.09;104113;277;39647;-77
2023/05/20 10:42:33;;;;;;;6.00;4.20;;;;;;;26.41;39.98;101472.16;104098;277;39003;-78
2023/05/20 10:45:27;;;;;;;5.70;5.00;;;;;;;26.42;39.86;101466.48;104022;277;38398;-77
2023/05/20 10:48:01;;;;;;;6.60;4.20;;;;;;;26.33;39.45;101463.86;104006;277;38421;-78
2023/05/20 10:50:46;;;;;;;6.20;4.40;;;;;;;26.28;39.79;101453.29;103985;277;39457;-76
2023/05/20 10:53:28;;;;;;;5.90;4.10;;;;;;;26.30;39.93;101445.23;104039;277;38473;-77
2023/05/20 10:56:26;;;;;;;6.00;4.30;;;;;;;26.36;40.17;101447.59;103835;277;38279;-77
2023/05/20 10:59:09;;;;;;;4.70;4.20;;;;;;;26.44;40.00;101439.52;103889;276;38551;-76
2023/05/20 11:01:48;;;;;;;4.80;4.10;;;;;;;26.54;39.90;101437.90;103475;277;891853;-75
2023/05/20 11:04:26;;;;;;;8.20;4.50;;;;;;;26.70;40.68;101441.63;104118;276;38233;-75
2023/05/20 11:07:11;;;;;;;7.80;4.80;;;;;;;26.75;39.37;101440.35;104117;277;38272;-79
2023/05/20 11:10:08;;;;;;;6.30;3.80;;;;;;;26.65;39.76;101438.36;104064;277;38243;-76
2023/05/20 11:12:55;;;;;;;5.00;4.30;;;;;;;26.70;39.73;101429.54;103923;278;39794;-75
2023/05/20 11:15:32;;;;;;;6.90;4.70;;;;;;;26.73;39.28;101422.79;104099;277;39412;-77
2023/05/20 11:18:10;;;;;;;5.20;3.90;;;;;;;26.64;38.92;101425.98;104073;276;38404;-72
2023/05/20 11:20:51;;;;;;;4.80;4.10;;;;;;;26.52;39.26;101417.33;104035;265;38241;-80
2023/05/20 11:23:36;;;;;;;4.70;4.30;;;;;;;26.48;39.21;101422.31;104062;277;38726;-73
2023/05/20 11:26:15;;;;;;;6.10;4.30;;;;;;;26.42;39.40;101415.19;103887;277;39380;-74
2023/05/20 11:28:50;;;;;;;6.60;4.30;;;;;;;26.29;39.49;101411.88;104118;277;39470;-77
2023/05/20 11:31:28;;;;;;;4.90;3.90;;;;;;;26.15;39.84;101412.12;104075;277;39391;-77
2023/05/20 11:34:03;;;;;;;6.20;4.40;;;;;;;26.05;39.79;101414.44;104090;277;38355;-78
2023/05/20 11:36:39;;;;;;;6.10;4.40;;;;;;;26.00;39.86;101411.52;104007;277;38250;-76
2023/05/20 11:39:16;;;;;;;7.10;4.50;;;;;;;25.97;39.85;101408.37;103942;277;38266;-74
2023/05/20 11:41:55;;;;;;;5.30;4.20;;;;;;;26.03;40.15;101413.93;104006;277;38248;-77
2023/05/20 11:44:38;;;;;;;7.50;4.40;;;;;;;26.08;39.92;101414.99;103932;277;38258;-76
2023/05/20 11:47:18;;;;;;;7.90;4.40;;;;;;;26.04;39.58;101412.98;104006;277;38258;-75
2023/05/20 11:49:56;;;;;;;5.00;4.20;;;;;;;25.92;39.55;101423.63;103958;277;38267;-76
2023/05/20 11:52:37;;;;;;;5.70;4.00;;;;;;;25.82;39.71;101426.11;103440;277;592609;-74
2023/05/20 11:55:16;;;;;;;9.90;4.80;;;;;;;25.77;40.16;101421.55;103834;277;38242;-74
2023/05/20 11:57:52;;;;;;;6.30;4.50;;;;;;;25.81;40.19;101417.15;103702;280;39802;-75
2023/05/20 12:00:46;;;;;;;7.80;5.30;;;;;;;25.81;40.23;101417.65;103915;277;38532;-73
2023/05/20 12:03:27;;;;;;;6.60;4.60;;;;;;;25.85;40.48;101413.70;104013;277;38710;-73
2023/05/20 12:06:02;;;;;;;6.70;5.00;;;;;;;25.87;40.31;101407.44;103944;277;38310;-76
2023/05/20 12:08:39;;;;;;;5.70;4.10;;;;;;;25.89;40.68;101405.98;103837;277;39591;-76
2023/05/20 12:11:16;;;;;;;10.00;4.70;;;;;;;25.96;40.25;101402.23;103904;277;38278;-75
2023/05/20 12:13:52;;;;;;;6.50;4.70;;;;;;;25.97;39.83;101399.96;103900;277;38474;-75